createdAt,value
2023-11-12T00:00:22.317Z,0.00
2023-11-12T00:01:22.302Z,0.00
2023-11-12T00:02:23.059Z,0.00
2023-11-12T00:03:22.386Z,0.00
2023-11-12T00:04:22.258Z,0.00
2023-11-12T00:05:22.306Z,0.00
2023-11-12T00:06:22.258Z,0.00
2023-11-12T00:07:22.273Z,0.00
2023-11-12T00:08:22.262Z,0.00
2023-11-12T00:09:22.208Z,0.00
2023-11-12T00:10:22.227Z,0.00
2023-11-12T00:11:22.192Z,0.00
2023-11-12T00:12:22.172Z,0.00
2023-11-12T00:13:22.206Z,0.00
2023-11-12T00:14:22.161Z,0.00
2023-11-12T00:15:22.172Z,0.00
2023-11-12T00:16:22.200Z,0.00
2023-11-12T00:17:22.217Z,0.00
2023-11-12T00:18:22.875Z,0.00
2023-11-12T00:19:22.151Z,0.00
2023-11-12T00:20:22.231Z,0.00
2023-11-12T00:21:22.082Z,0.00
2023-11-12T00:22:22.092Z,0.00
2023-11-12T00:23:22.228Z,0.00
2023-11-12T00:24:22.187Z,0.00
2023-11-12T00:25:22.092Z,0.00
2023-11-12T00:26:22.034Z,0.00
2023-11-12T00:27:21.993Z,0.00
2023-11-12T00:28:22.003Z,0.00
2023-11-12T00:29:22.064Z,0.00
2023-11-12T00:30:21.956Z,0.00
2023-11-12T00:31:21.991Z,0.00
2023-11-12T00:32:21.996Z,0.00
2023-11-12T00:33:21.975Z,0.00
2023-11-12T00:34:21.906Z,0.00
2023-11-12T00:35:21.962Z,0.00
2023-11-12T00:36:21.926Z,0.00
2023-11-12T00:37:21.913Z,0.00
2023-11-12T00:38:22.808Z,0.00
2023-11-12T00:39:21.922Z,0.00
2023-11-12T00:40:21.900Z,0.00
2023-11-12T00:41:21.876Z,0.00
2023-11-12T00:42:21.848Z,0.00
2023-11-12T00:43:21.996Z,0.00
2023-11-12T00:44:21.848Z,0.00
2023-11-12T00:45:21.799Z,0.00
2023-11-12T00:46:21.801Z,0.00
2023-11-12T00:47:21.847Z,0.00
2023-11-12T00:48:21.799Z,0.00
2023-11-12T00:49:21.763Z,0.00
2023-11-12T00:50:21.796Z,0.00
2023-11-12T00:51:21.730Z,0.00
2023-11-12T00:52:21.776Z,0.00
2023-11-12T00:53:21.735Z,0.00
2023-11-12T00:54:21.699Z,0.00
2023-11-12T00:55:21.732Z,0.00
2023-11-12T00:56:21.726Z,0.00
2023-11-12T00:57:21.673Z,0.00
2023-11-12T00:58:22.549Z,0.00
2023-11-12T00:59:21.682Z,0.00
2023-11-12T01:00:21.639Z,0.00
2023-11-12T01:01:21.709Z,0.00
2023-11-12T01:02:21.669Z,0.00
2023-11-12T01:03:21.695Z,0.00
2023-11-12T01:04:21.570Z,0.00
2023-11-12T01:05:21.632Z,0.00
2023-11-12T01:06:21.586Z,0.00
2023-11-12T01:07:21.574Z,0.00
2023-11-12T01:08:21.558Z,0.00
2023-11-12T01:09:21.524Z,0.00
2023-11-12T01:10:21.564Z,0.00
2023-11-12T01:11:21.558Z,0.00
2023-11-12T01:12:21.489Z,0.00
2023-11-12T01:13:21.523Z,0.00
2023-11-12T01:14:21.469Z,0.00
2023-11-12T01:15:21.457Z,0.00
2023-11-12T01:16:21.479Z,0.00
2023-11-12T01:17:21.451Z,0.00
2023-11-12T01:18:21.483Z,0.00
2023-11-12T01:19:22.144Z,0.00
2023-11-12T01:20:21.410Z,0.00
2023-11-12T01:21:21.436Z,0.00
2023-11-12T01:22:21.379Z,0.00
2023-11-12T01:23:21.375Z,0.00
2023-11-12T01:24:21.376Z,0.00
2023-11-12T01:25:21.353Z,0.00
2023-11-12T01:26:21.321Z,0.00
2023-11-12T01:27:21.342Z,0.00
2023-11-12T01:28:21.326Z,0.00
2023-11-12T01:29:21.290Z,0.00
2023-11-12T01:30:21.304Z,0.00
2023-11-12T01:31:21.272Z,0.00
2023-11-12T01:32:21.271Z,0.00
2023-11-12T01:33:21.279Z,0.00
2023-11-12T01:34:21.255Z,0.00
2023-11-12T01:35:21.218Z,0.00
2023-11-12T01:36:21.243Z,0.00
2023-11-12T01:37:21.227Z,0.00
2023-11-12T01:38:22.113Z,0.00
2023-11-12T01:39:22.084Z,0.00
2023-11-12T01:40:21.185Z,0.00
2023-11-12T01:41:21.178Z,0.00
2023-11-12T01:42:21.144Z,0.00
2023-11-12T01:43:21.292Z,0.00
2023-11-12T01:44:21.132Z,0.00
2023-11-12T01:45:21.114Z,0.00
2023-11-12T01:46:21.135Z,0.00
2023-11-12T01:47:21.107Z,0.00
2023-11-12T01:48:21.190Z,0.00
2023-11-12T01:49:21.067Z,0.00
2023-11-12T01:50:21.058Z,0.00
2023-11-12T01:51:21.068Z,0.00
2023-11-12T01:52:21.028Z,0.00
2023-11-12T01:53:21.062Z,0.00
2023-11-12T01:54:21.041Z,0.00
2023-11-12T01:55:20.999Z,0.00
2023-11-12T01:56:20.972Z,0.00
2023-11-12T01:57:21.032Z,0.00
2023-11-12T01:58:21.497Z,0.00
2023-11-12T01:59:20.991Z,0.00
2023-11-12T02:00:21.734Z,0.00
2023-11-12T02:01:21.015Z,0.00
2023-11-12T02:02:20.917Z,0.00
2023-11-12T02:03:21.858Z,0.00
2023-11-12T02:04:20.927Z,0.00
2023-11-12T02:05:20.911Z,0.00
2023-11-12T02:06:20.900Z,0.00
2023-11-12T02:07:20.866Z,0.00
2023-11-12T02:08:20.843Z,0.00
2023-11-12T02:09:20.875Z,0.00
2023-11-12T02:10:20.824Z,0.00
2023-11-12T02:11:20.815Z,0.00
2023-11-12T02:12:20.809Z,0.00
2023-11-12T02:13:20.857Z,0.00
2023-11-12T02:14:20.771Z,0.00
2023-11-12T02:15:20.843Z,0.00
2023-11-12T02:16:20.823Z,0.00
2023-11-12T02:17:20.771Z,0.00
2023-11-12T02:18:20.761Z,0.00
2023-11-12T02:19:21.500Z,0.00
2023-11-12T02:20:21.573Z,0.00
2023-11-12T02:21:20.769Z,0.00
2023-11-12T02:22:20.677Z,0.00
2023-11-12T02:23:20.658Z,0.00
2023-11-12T02:24:20.719Z,0.00
2023-11-12T02:25:20.682Z,0.00
2023-11-12T02:26:20.650Z,0.00
2023-11-12T02:27:20.657Z,0.00
2023-11-12T02:28:20.647Z,0.00
2023-11-12T02:29:20.606Z,0.00
2023-11-12T02:30:20.674Z,0.00
2023-11-12T02:31:20.629Z,0.00
2023-11-12T02:32:20.579Z,0.00
2023-11-12T02:33:20.605Z,0.00
2023-11-12T02:34:20.543Z,0.00
2023-11-12T02:35:20.535Z,0.00
2023-11-12T02:36:20.757Z,0.00
2023-11-12T02:37:20.521Z,0.00
2023-11-12T02:38:20.501Z,0.00
2023-11-12T02:39:20.537Z,0.00
2023-11-12T02:40:20.491Z,0.00
2023-11-12T02:41:21.333Z,0.00
2023-11-12T02:42:20.513Z,0.00
2023-11-12T02:43:20.447Z,0.00
2023-11-12T02:44:20.433Z,0.00
2023-11-12T02:45:20.464Z,0.00
2023-11-12T02:46:20.449Z,0.00
2023-11-12T02:47:20.501Z,0.00
2023-11-12T02:48:20.423Z,0.00
2023-11-12T02:49:20.393Z,0.00
2023-11-12T02:50:20.376Z,0.00
2023-11-12T02:51:20.386Z,0.00
2023-11-12T02:52:20.374Z,0.00
2023-11-12T02:53:20.372Z,0.00
2023-11-12T02:54:20.386Z,0.00
2023-11-12T02:55:20.338Z,0.00
2023-11-12T02:56:20.334Z,0.00
2023-11-12T02:57:20.355Z,0.00
2023-11-12T02:58:20.769Z,0.00
2023-11-12T02:59:20.302Z,0.00
2023-11-12T03:00:21.232Z,0.00
2023-11-12T03:01:21.097Z,0.00
2023-11-12T03:02:20.265Z,0.00
2023-11-12T03:03:21.175Z,0.00
2023-11-12T03:04:20.993Z,0.00
2023-11-12T03:05:20.221Z,0.00
2023-11-12T03:06:20.262Z,0.00
2023-11-12T03:07:20.211Z,0.00
2023-11-12T03:08:20.191Z,0.00
2023-11-12T03:09:20.177Z,0.00
2023-11-12T03:10:20.154Z,0.00
2023-11-12T03:11:20.152Z,0.00
2023-11-12T03:12:21.059Z,0.00
2023-11-12T03:13:20.921Z,0.00
2023-11-12T03:14:20.159Z,0.00
2023-11-12T03:15:20.142Z,0.00
2023-11-12T03:16:20.230Z,0.00
2023-11-12T03:17:20.178Z,0.00
2023-11-12T03:18:20.133Z,0.00
2023-11-12T03:19:20.048Z,0.00
2023-11-12T03:20:20.214Z,0.00
2023-11-12T03:21:20.073Z,0.00
2023-11-12T03:22:20.029Z,0.00
2023-11-12T03:23:20.041Z,0.00
2023-11-12T03:24:20.037Z,0.00
2023-11-12T03:25:20.005Z,0.00
2023-11-12T03:26:19.952Z,0.00
2023-11-12T03:27:19.949Z,0.00
2023-11-12T03:28:19.949Z,0.00
2023-11-12T03:29:19.925Z,0.00
2023-11-12T03:30:19.919Z,0.00
2023-11-12T03:31:19.950Z,0.00
2023-11-12T03:32:19.901Z,0.00
2023-11-12T03:33:19.887Z,0.00
2023-11-12T03:34:20.102Z,0.00
2023-11-12T03:35:19.880Z,0.00
2023-11-12T03:36:19.873Z,0.00
2023-11-12T03:37:19.830Z,0.00
2023-11-12T03:38:19.828Z,0.00
2023-11-12T03:39:19.947Z,0.00
2023-11-12T03:40:19.798Z,0.00
2023-11-12T03:41:20.567Z,0.00
2023-11-12T03:42:20.759Z,0.00
2023-11-12T03:43:19.780Z,0.00
2023-11-12T03:44:19.756Z,0.00
2023-11-12T03:45:19.769Z,0.00
2023-11-12T03:46:19.761Z,0.00
2023-11-12T03:47:19.715Z,0.00
2023-11-12T03:48:19.754Z,0.00
2023-11-12T03:49:19.689Z,0.00
2023-11-12T03:50:19.679Z,0.00
2023-11-12T03:51:19.742Z,0.00
2023-11-12T03:52:19.671Z,0.00
2023-11-12T03:53:19.659Z,0.00
2023-11-12T03:54:19.664Z,0.00
2023-11-12T03:55:19.619Z,0.00
2023-11-12T03:56:19.625Z,0.00
2023-11-12T03:57:19.661Z,0.00
2023-11-12T03:58:19.628Z,0.00
2023-11-12T03:59:19.573Z,0.00
2023-11-12T04:00:19.637Z,0.00
2023-11-12T04:01:19.689Z,0.00
2023-11-12T04:02:19.675Z,0.00
2023-11-12T04:03:20.631Z,0.00
2023-11-12T04:04:19.868Z,0.00
2023-11-12T04:05:19.577Z,0.00
2023-11-12T04:06:19.557Z,0.00
2023-11-12T04:07:19.786Z,0.00
2023-11-12T04:08:19.482Z,0.00
2023-11-12T04:09:19.469Z,0.00
2023-11-12T04:10:19.479Z,0.00
2023-11-12T04:11:19.433Z,0.00
2023-11-12T04:12:19.445Z,0.00
2023-11-12T04:13:19.443Z,0.00
2023-11-12T04:14:19.440Z,0.00
2023-11-12T04:15:19.411Z,0.00
2023-11-12T04:16:19.446Z,0.00
2023-11-12T04:17:19.365Z,0.00
2023-11-12T04:18:19.411Z,0.00
2023-11-12T04:19:19.434Z,0.00
2023-11-12T04:20:19.336Z,0.00
2023-11-12T04:21:19.356Z,0.00
2023-11-12T04:22:19.338Z,0.00
2023-11-12T04:23:20.097Z,0.00
2023-11-12T04:24:19.395Z,0.00
2023-11-12T04:25:19.362Z,0.00
2023-11-12T04:26:19.265Z,0.00
2023-11-12T04:27:19.280Z,0.00
2023-11-12T04:28:19.262Z,0.00
2023-11-12T04:29:19.271Z,0.00
2023-11-12T04:30:19.276Z,0.00
2023-11-12T04:31:19.277Z,0.00
2023-11-12T04:32:19.204Z,0.00
2023-11-12T04:33:19.196Z,0.00
2023-11-12T04:34:19.227Z,0.00
2023-11-12T04:35:19.174Z,0.00
2023-11-12T04:36:19.212Z,0.00
2023-11-12T04:37:19.193Z,0.00
2023-11-12T04:38:19.175Z,0.00
2023-11-12T04:39:19.225Z,0.00
2023-11-12T04:40:19.147Z,0.00
2023-11-12T04:41:19.199Z,0.00
2023-11-12T04:42:19.355Z,0.00
2023-11-12T04:43:19.974Z,0.00
2023-11-12T04:44:19.240Z,0.00
2023-11-12T04:45:19.686Z,0.00
2023-11-12T04:46:19.133Z,0.00
2023-11-12T04:47:19.099Z,0.00
2023-11-12T04:48:19.122Z,0.00
2023-11-12T04:49:19.002Z,0.00
2023-11-12T04:50:19.026Z,0.00
2023-11-12T04:51:19.060Z,0.00
2023-11-12T04:52:18.977Z,0.00
2023-11-12T04:53:18.972Z,0.00
2023-11-12T04:54:19.035Z,0.00
2023-11-12T04:55:18.969Z,0.00
2023-11-12T04:56:19.010Z,0.00
2023-11-12T04:57:18.956Z,0.00
2023-11-12T04:58:18.908Z,0.00
2023-11-12T04:59:18.941Z,0.00
2023-11-12T05:00:18.978Z,0.00
2023-11-12T05:01:18.869Z,0.00
2023-11-12T05:02:18.904Z,0.00
2023-11-12T05:03:18.931Z,0.00
2023-11-12T05:04:18.928Z,0.00
2023-11-12T05:05:18.920Z,0.00
2023-11-12T05:06:18.825Z,0.00
2023-11-12T05:07:18.805Z,0.00
2023-11-12T05:08:18.815Z,0.00
2023-11-12T05:09:18.807Z,0.00
2023-11-12T05:10:18.771Z,0.00
2023-11-12T05:11:18.790Z,0.00
2023-11-12T05:12:19.122Z,0.00
2023-11-12T05:13:18.757Z,0.00
2023-11-12T05:14:18.727Z,0.00
2023-11-12T05:15:18.768Z,0.00
2023-11-12T05:16:18.758Z,0.00
2023-11-12T05:17:18.699Z,0.00
2023-11-12T05:18:18.774Z,0.00
2023-11-12T05:19:18.659Z,0.00
2023-11-12T05:20:18.669Z,0.00
2023-11-12T05:21:18.710Z,0.00
2023-11-12T05:22:18.639Z,0.00
2023-11-12T05:23:19.465Z,0.00
2023-11-12T05:24:19.401Z,0.00
2023-11-12T05:25:18.646Z,0.00
2023-11-12T05:26:18.596Z,0.00
2023-11-12T05:27:18.602Z,0.00
2023-11-12T05:28:18.631Z,0.00
2023-11-12T05:29:18.562Z,0.00
2023-11-12T05:30:18.564Z,0.00
2023-11-12T05:31:18.607Z,0.00
2023-11-12T05:32:18.552Z,0.00
2023-11-12T05:33:18.524Z,0.00
2023-11-12T05:34:18.518Z,0.00
2023-11-12T05:35:18.517Z,0.00
2023-11-12T05:36:18.512Z,0.00
2023-11-12T05:37:18.467Z,0.00
2023-11-12T05:38:18.511Z,0.00
2023-11-12T05:39:18.486Z,0.00
2023-11-12T05:40:18.431Z,0.00
2023-11-12T05:41:18.465Z,0.00
2023-11-12T05:42:18.430Z,0.00
2023-11-12T05:43:18.399Z,0.00
2023-11-12T05:44:19.187Z,0.00
2023-11-12T05:45:18.573Z,0.00
2023-11-12T05:46:18.413Z,0.00
2023-11-12T05:47:18.360Z,0.00
2023-11-12T05:48:18.379Z,0.00
2023-11-12T05:49:18.348Z,0.00
2023-11-12T05:50:18.328Z,0.00
2023-11-12T05:51:18.334Z,0.00
2023-11-12T05:52:18.289Z,0.00
2023-11-12T05:53:18.289Z,0.00
2023-11-12T05:54:18.389Z,0.00
2023-11-12T05:55:18.262Z,0.00
2023-11-12T05:56:18.316Z,0.00
2023-11-12T05:57:18.255Z,0.00
2023-11-12T05:58:18.279Z,0.00
2023-11-12T05:59:18.220Z,0.00
2023-11-12T06:00:18.256Z,0.00
2023-11-12T06:01:18.217Z,0.00
2023-11-12T06:02:18.190Z,0.00
2023-11-12T06:03:18.320Z,0.00
2023-11-12T06:04:19.181Z,0.00
2023-11-12T06:05:18.904Z,0.00
2023-11-12T06:06:18.203Z,0.00
2023-11-12T06:07:18.154Z,0.00
2023-11-12T06:08:18.130Z,0.00
2023-11-12T06:09:18.139Z,0.00
2023-11-12T06:10:18.120Z,4.00
2023-11-12T06:11:18.097Z,0.00
2023-11-12T06:12:18.164Z,0.00
2023-11-12T06:13:18.101Z,4.00
2023-11-12T06:14:18.041Z,4.00
2023-11-12T06:15:18.062Z,4.00
2023-11-12T06:16:18.103Z,8.00
2023-11-12T06:17:18.015Z,8.00
2023-11-12T06:18:18.026Z,8.00
2023-11-12T06:19:18.053Z,8.00
2023-11-12T06:20:17.984Z,8.00
2023-11-12T06:21:18.028Z,12.00
2023-11-12T06:22:18.002Z,16.00
2023-11-12T06:23:17.943Z,16.00
2023-11-12T06:24:17.954Z,20.00
2023-11-12T06:25:18.143Z,20.00
2023-11-12T06:26:18.078Z,24.00
2023-11-12T06:27:17.929Z,28.00
2023-11-12T06:28:17.929Z,32.00
2023-11-12T06:29:17.883Z,36.00
2023-11-12T06:30:17.883Z,44.00
2023-11-12T06:31:17.904Z,48.00
2023-11-12T06:32:17.883Z,52.00
2023-11-12T06:33:17.934Z,56.00
2023-11-12T06:34:17.930Z,64.00
2023-11-12T06:35:17.816Z,72.00
2023-11-12T06:36:17.816Z,76.00
2023-11-12T06:37:17.784Z,84.00
2023-11-12T06:38:17.778Z,92.00
2023-11-12T06:39:17.970Z,104.00
2023-11-12T06:40:17.791Z,116.00
2023-11-12T06:41:17.793Z,124.00
2023-11-12T06:42:17.770Z,140.00
2023-11-12T06:43:17.719Z,152.00
2023-11-12T06:44:17.746Z,160.00
2023-11-12T06:45:17.735Z,172.00
2023-11-12T06:46:18.695Z,184.00
2023-11-12T06:47:17.691Z,200.00
2023-11-12T06:48:17.713Z,212.00
2023-11-12T06:49:17.646Z,220.00
2023-11-12T06:50:17.657Z,240.00
2023-11-12T06:51:17.726Z,256.00
2023-11-12T06:52:17.639Z,272.00
2023-11-12T06:53:17.592Z,268.00
2023-11-12T06:54:17.653Z,284.00
2023-11-12T06:55:17.579Z,296.00
2023-11-12T06:56:17.601Z,308.00
2023-11-12T06:57:17.591Z,308.00
2023-11-12T06:58:17.550Z,324.00
2023-11-12T06:59:18.516Z,332.00
2023-11-12T07:00:17.577Z,344.00
2023-11-12T07:01:17.543Z,360.00
2023-11-12T07:02:17.503Z,376.00
2023-11-12T07:03:17.657Z,384.00
2023-11-12T07:04:17.571Z,400.00
2023-11-12T07:05:17.494Z,412.00
2023-11-12T07:06:18.185Z,420.00
2023-11-12T07:07:17.574Z,436.00
2023-11-12T07:08:17.478Z,448.00
2023-11-12T07:09:17.443Z,456.00
2023-11-12T07:10:17.443Z,472.00
2023-11-12T07:11:17.452Z,488.00
2023-11-12T07:12:17.444Z,496.00
2023-11-12T07:13:17.423Z,504.00
2023-11-12T07:14:17.361Z,520.00
2023-11-12T07:15:17.348Z,552.00
2023-11-12T07:16:17.382Z,568.00
2023-11-12T07:17:17.449Z,572.00
2023-11-12T07:18:18.423Z,592.00
2023-11-12T07:19:17.356Z,632.00
2023-11-12T07:20:17.303Z,664.00
2023-11-12T07:21:17.325Z,672.00
2023-11-12T07:22:17.288Z,676.00
2023-11-12T07:23:17.264Z,676.00
2023-11-12T07:24:17.317Z,696.00
2023-11-12T07:25:17.239Z,708.00
2023-11-12T07:26:17.553Z,724.00
2023-11-12T07:27:17.248Z,748.00
2023-11-12T07:28:17.243Z,752.00
2023-11-12T07:29:17.322Z,756.00
2023-11-12T07:30:17.220Z,780.00
2023-11-12T07:31:17.210Z,788.00
2023-11-12T07:32:17.159Z,804.00
2023-11-12T07:33:17.226Z,828.00
2023-11-12T07:34:17.149Z,836.00
2023-11-12T07:35:17.138Z,868.00
2023-11-12T07:36:17.189Z,888.00
2023-11-12T07:37:17.111Z,892.00
2023-11-12T07:38:17.094Z,908.00
2023-11-12T07:39:17.150Z,920.00
2023-11-12T07:40:17.142Z,968.00
2023-11-12T07:41:17.051Z,1012.00
2023-11-12T07:42:17.063Z,1012.00
2023-11-12T07:43:17.133Z,1008.00
2023-11-12T07:44:17.030Z,1032.00
2023-11-12T07:45:21.227Z,1056.00
2023-11-12T07:46:18.078Z,1028.00
2023-11-12T07:47:17.929Z,992.00
2023-11-12T07:48:17.030Z,1020.00
2023-11-12T07:49:16.973Z,1092.00
2023-11-12T07:50:16.988Z,1076.00
2023-11-12T07:51:17.003Z,1004.00
2023-11-12T07:52:16.942Z,1084.00
2023-11-12T07:53:16.954Z,1196.00
2023-11-12T07:54:16.932Z,1168.00
2023-11-12T07:55:16.899Z,1120.00
2023-11-12T07:56:16.897Z,1180.00
2023-11-12T07:57:16.975Z,1240.00
2023-11-12T07:58:16.870Z,1236.00
2023-11-12T07:59:16.857Z,1256.00
2023-11-12T08:00:16.936Z,1264.00
2023-11-12T08:01:16.832Z,1240.00
2023-11-12T08:02:16.826Z,1204.00
2023-11-12T08:03:16.882Z,1228.00
2023-11-12T08:04:17.006Z,1308.00
2023-11-12T08:05:16.800Z,1372.00
2023-11-12T08:06:16.978Z,1392.00
2023-11-12T08:07:17.529Z,1408.00
2023-11-12T08:08:17.592Z,1412.00
2023-11-12T08:09:16.829Z,1380.00
2023-11-12T08:10:16.731Z,1328.00
2023-11-12T08:11:16.709Z,1396.00
2023-11-12T08:12:16.739Z,1492.00
2023-11-12T08:13:16.708Z,1428.00
2023-11-12T08:14:16.684Z,1248.00
2023-11-12T08:15:16.710Z,1364.00
2023-11-12T08:16:16.680Z,1488.00
2023-11-12T08:17:16.779Z,1488.00
2023-11-12T08:18:16.662Z,1540.00
2023-11-12T08:19:16.844Z,1560.00
2023-11-12T08:20:16.654Z,1532.00
2023-11-12T08:21:16.661Z,1504.00
2023-11-12T08:22:16.608Z,1548.00
2023-11-12T08:23:16.582Z,1536.00
2023-11-12T08:24:16.586Z,1488.00
2023-11-12T08:25:16.892Z,1448.00
2023-11-12T08:26:16.575Z,1436.00
2023-11-12T08:27:16.639Z,1452.00
2023-11-12T08:28:19.176Z,1436.00
2023-11-12T08:29:16.754Z,1432.00
2023-11-12T08:30:16.645Z,1432.00
2023-11-12T08:31:17.277Z,1376.00
2023-11-12T08:32:16.870Z,1364.00
2023-11-12T08:33:16.516Z,1300.00
2023-11-12T08:34:16.482Z,1336.00
2023-11-12T08:35:17.183Z,1408.00
2023-11-12T08:36:16.481Z,1348.00
2023-11-12T08:37:16.558Z,1356.00
2023-11-12T08:38:16.679Z,1248.00
2023-11-12T08:39:16.440Z,1216.00
2023-11-12T08:40:19.338Z,1536.00
2023-11-12T08:41:16.396Z,1456.00
2023-11-12T08:42:16.394Z,1276.00
2023-11-12T08:43:16.748Z,1456.00
2023-11-12T08:44:16.349Z,1360.00
2023-11-12T08:45:17.236Z,1204.00
2023-11-12T08:46:17.060Z,1336.00
2023-11-12T08:47:16.314Z,1352.00
2023-11-12T08:48:16.384Z,1320.00
2023-11-12T08:49:16.322Z,1404.00
2023-11-12T08:50:16.285Z,1288.00
2023-11-12T08:51:16.329Z,1292.00
2023-11-12T08:52:16.241Z,1604.00
2023-11-12T08:53:16.230Z,1648.00
2023-11-12T08:54:17.067Z,1444.00
2023-11-12T08:55:16.738Z,1496.00
2023-11-12T08:56:16.201Z,1472.00
2023-11-12T08:57:16.195Z,1380.00
2023-11-12T08:58:16.188Z,1468.00
2023-11-12T08:59:17.125Z,1716.00
2023-11-12T09:00:16.196Z,1952.00
2023-11-12T09:01:16.225Z,2208.00
2023-11-12T09:02:16.137Z,2152.00
2023-11-12T09:03:16.243Z,1804.00
2023-11-12T09:04:16.177Z,1740.00
2023-11-12T09:05:16.100Z,1672.00
2023-11-12T09:06:16.115Z,1940.00
2023-11-12T09:07:16.233Z,2020.00
2023-11-12T09:08:16.230Z,1720.00
2023-11-12T09:09:17.006Z,1804.00
2023-11-12T09:10:16.061Z,2172.00
2023-11-12T09:11:16.079Z,2184.00
2023-11-12T09:12:16.065Z,2324.00
2023-11-12T09:13:16.013Z,2428.00
2023-11-12T09:14:16.021Z,2232.00
2023-11-12T09:15:16.029Z,2156.00
2023-11-12T09:16:16.052Z,2248.00
2023-11-12T09:17:16.016Z,2404.00
2023-11-12T09:18:15.984Z,2500.00
2023-11-12T09:19:15.966Z,2632.00
2023-11-12T09:20:15.976Z,2564.00
2023-11-12T09:21:15.956Z,2576.00
2023-11-12T09:22:15.930Z,2344.00
2023-11-12T09:23:15.916Z,2376.00
2023-11-12T09:24:16.000Z,2308.00
2023-11-12T09:25:15.904Z,2204.00
2023-11-12T09:26:15.866Z,2384.00
2023-11-12T09:27:15.917Z,2568.00
2023-11-12T09:28:15.868Z,2696.00
2023-11-12T09:29:15.916Z,2780.00
2023-11-12T09:30:15.999Z,2864.00
2023-11-12T09:31:16.681Z,2836.00
2023-11-12T09:32:15.864Z,2628.00
2023-11-12T09:33:15.948Z,2552.00
2023-11-12T09:34:15.841Z,2572.00
2023-11-12T09:35:15.794Z,2544.00
2023-11-12T09:36:15.768Z,2524.00
2023-11-12T09:37:15.788Z,2288.00
2023-11-12T09:38:15.754Z,1960.00
2023-11-12T09:39:15.750Z,2160.00
2023-11-12T09:40:15.738Z,2128.00
2023-11-12T09:41:15.714Z,2776.00
2023-11-12T09:42:15.723Z,2632.00
2023-11-12T09:43:15.725Z,2704.00
2023-11-12T09:44:15.675Z,2528.00
2023-11-12T09:45:15.671Z,2636.00
2023-11-12T09:46:15.709Z,2804.00
2023-11-12T09:47:15.668Z,2900.00
2023-11-12T09:48:18.175Z,2848.00
2023-11-12T09:49:15.633Z,2836.00
2023-11-12T09:50:16.376Z,2912.00
2023-11-12T09:51:15.643Z,2992.00
2023-11-12T09:52:15.687Z,3172.00
2023-11-12T09:53:15.574Z,3240.00
2023-11-12T09:54:15.588Z,3244.00
2023-11-12T09:55:15.559Z,2940.00
2023-11-12T09:56:15.562Z,3128.00
2023-11-12T09:57:15.568Z,3080.00
2023-11-12T09:58:15.531Z,3060.00
2023-11-12T09:59:15.516Z,2676.00
2023-11-12T10:00:15.649Z,2888.00
2023-11-12T10:01:15.507Z,2576.00
2023-11-12T10:02:15.483Z,2584.00
2023-11-12T10:03:15.644Z,2696.00
2023-11-12T10:04:15.506Z,2840.00
2023-11-12T10:05:15.441Z,2720.00
2023-11-12T10:06:15.440Z,2660.00
2023-11-12T10:07:15.400Z,2588.00
2023-11-12T10:08:15.382Z,2712.00
2023-11-12T10:09:15.391Z,2608.00
2023-11-12T10:10:16.129Z,2628.00
2023-11-12T10:11:15.600Z,2132.00
2023-11-12T10:12:15.366Z,2400.00
2023-11-12T10:13:15.332Z,2328.00
2023-11-12T10:14:15.419Z,2328.00
2023-11-12T10:15:15.313Z,2524.00
2023-11-12T10:16:15.345Z,2812.00
2023-11-12T10:17:15.288Z,3360.00
2023-11-12T10:18:15.337Z,3472.00
2023-11-12T10:19:15.997Z,3744.00
2023-11-12T10:20:15.320Z,3440.00
2023-11-12T10:21:15.235Z,2464.00
2023-11-12T10:22:15.474Z,2212.00
2023-11-12T10:23:20.124Z,2304.00
2023-11-12T10:24:16.192Z,2216.00
2023-11-12T10:25:15.980Z,2032.00
2023-11-12T10:26:16.130Z,2068.00
2023-11-12T10:27:15.264Z,2368.00
2023-11-12T10:28:15.165Z,3140.00
2023-11-12T10:29:15.212Z,3136.00
2023-11-12T10:30:16.016Z,2844.00
2023-11-12T10:31:16.004Z,2692.00
2023-11-12T10:32:15.160Z,2228.00
2023-11-12T10:33:15.255Z,1972.00
2023-11-12T10:34:16.180Z,2068.00
2023-11-12T10:35:15.128Z,2420.00
2023-11-12T10:36:15.618Z,2540.00
2023-11-12T10:37:15.244Z,2392.00
2023-11-12T10:38:15.237Z,2332.00
2023-11-12T10:39:15.181Z,1908.00
2023-11-12T10:40:15.899Z,2156.00
2023-11-12T10:41:15.049Z,2180.00
2023-11-12T10:42:15.411Z,2416.00
2023-11-12T10:43:15.158Z,3392.00
2023-11-12T10:44:15.019Z,3748.00
2023-11-12T10:45:15.075Z,3588.00
2023-11-12T10:46:15.216Z,3160.00
2023-11-12T10:47:15.903Z,3284.00
2023-11-12T10:48:14.948Z,3360.00
2023-11-12T10:49:15.239Z,3828.00
2023-11-12T10:50:15.708Z,4080.00
2023-11-12T10:51:16.136Z,3852.00
2023-11-12T10:52:15.211Z,3632.00
2023-11-12T10:53:15.173Z,3284.00
2023-11-12T10:54:15.845Z,3176.00
2023-11-12T10:55:16.423Z,3152.00
2023-11-12T10:56:15.331Z,2972.00
2023-11-12T10:57:16.266Z,3008.00
2023-11-12T10:58:17.194Z,3036.00
2023-11-12T10:59:15.048Z,3044.00
2023-11-12T11:00:14.864Z,2516.00
2023-11-12T11:01:14.805Z,2516.00
2023-11-12T11:02:14.785Z,2488.00
2023-11-12T11:03:14.852Z,2532.00
2023-11-12T11:04:14.833Z,2452.00
2023-11-12T11:05:14.784Z,2736.00
2023-11-12T11:06:14.771Z,3392.00
2023-11-12T11:07:14.849Z,3692.00
2023-11-12T11:08:14.722Z,3368.00
2023-11-12T11:09:14.752Z,3320.00
2023-11-12T11:10:14.697Z,3340.00
2023-11-12T11:11:14.748Z,3504.00
2023-11-12T11:12:16.037Z,3856.00
2023-11-12T11:13:14.738Z,3968.00
2023-11-12T11:14:14.690Z,3764.00
2023-11-12T11:15:14.657Z,2816.00
2023-11-12T11:16:14.756Z,2780.00
2023-11-12T11:17:14.638Z,2904.00
2023-11-12T11:18:14.613Z,2876.00
2023-11-12T11:19:14.636Z,3332.00
2023-11-12T11:20:14.667Z,3380.00
2023-11-12T11:21:14.579Z,3200.00
2023-11-12T11:22:14.556Z,3276.00
2023-11-12T11:23:14.548Z,3336.00
2023-11-12T11:24:14.553Z,3288.00
2023-11-12T11:25:15.325Z,3244.00
2023-11-12T11:26:14.531Z,3784.00
2023-11-12T11:27:14.512Z,4728.00
2023-11-12T11:28:14.485Z,4304.00
2023-11-12T11:29:14.560Z,4008.00
2023-11-12T11:30:14.476Z,3864.00
2023-11-12T11:31:15.267Z,3460.00
2023-11-12T11:32:15.304Z,2836.00
2023-11-12T11:33:14.490Z,2596.00
2023-11-12T11:34:14.822Z,2544.00
2023-11-12T11:35:14.474Z,2596.00
2023-11-12T11:36:14.505Z,2432.00
2023-11-12T11:37:14.411Z,2568.00
2023-11-12T11:38:14.845Z,2884.00
2023-11-12T11:39:14.446Z,3060.00
2023-11-12T11:40:14.385Z,3792.00
2023-11-12T11:41:14.370Z,3928.00
2023-11-12T11:42:15.722Z,3828.00
2023-11-12T11:43:14.339Z,3764.00
2023-11-12T11:44:14.617Z,3472.00
2023-11-12T11:45:14.331Z,2860.00
2023-11-12T11:46:15.533Z,2868.00
2023-11-12T11:47:14.335Z,3388.00
2023-11-12T11:48:14.318Z,3372.00
2023-11-12T11:49:14.342Z,3504.00
2023-11-12T11:50:14.574Z,3372.00
2023-11-12T11:51:14.330Z,3444.00
2023-11-12T11:52:15.031Z,3256.00
2023-11-12T11:53:15.023Z,4308.00
2023-11-12T11:54:14.941Z,3508.00
2023-11-12T11:55:14.207Z,4248.00
2023-11-12T11:56:14.187Z,3980.00
2023-11-12T11:57:14.183Z,3524.00
2023-11-12T11:58:14.601Z,3204.00
2023-11-12T11:59:14.188Z,2916.00
2023-11-12T12:00:14.166Z,2884.00
2023-11-12T12:01:14.110Z,2780.00
2023-11-12T12:02:14.149Z,2764.00
2023-11-12T12:03:14.145Z,2308.00
2023-11-12T12:04:14.567Z,2388.00
2023-11-12T12:05:14.082Z,2444.00
2023-11-12T12:06:14.103Z,2640.00
2023-11-12T12:07:15.042Z,2668.00
2023-11-12T12:08:14.109Z,2316.00
2023-11-12T12:09:14.099Z,2324.00
2023-11-12T12:10:14.102Z,2980.00
2023-11-12T12:11:14.042Z,3276.00
2023-11-12T12:12:14.775Z,2996.00
2023-11-12T12:13:14.052Z,2676.00
2023-11-12T12:14:14.047Z,2660.00
2023-11-12T12:15:14.208Z,2600.00
2023-11-12T12:16:14.031Z,2320.00
2023-11-12T12:17:14.101Z,2192.00
2023-11-12T12:18:13.987Z,1892.00
2023-11-12T12:19:13.945Z,1692.00
2023-11-12T12:20:13.964Z,1700.00
2023-11-12T12:21:13.932Z,1864.00
2023-11-12T12:22:13.924Z,2228.00
2023-11-12T12:23:13.960Z,2672.00
2023-11-12T12:24:13.943Z,3016.00
2023-11-12T12:25:13.889Z,2668.00
2023-11-12T12:26:13.884Z,2156.00
2023-11-12T12:27:14.072Z,1820.00
2023-11-12T12:28:13.872Z,1544.00
2023-11-12T12:29:13.868Z,1536.00
2023-11-12T12:30:13.845Z,1640.00
2023-11-12T12:31:13.946Z,1912.00
2023-11-12T12:32:13.856Z,2128.00
2023-11-12T12:33:14.527Z,2396.00
2023-11-12T12:34:13.822Z,2344.00
2023-11-12T12:35:13.787Z,2268.00
2023-11-12T12:36:13.791Z,2320.00
2023-11-12T12:37:13.749Z,2308.00
2023-11-12T12:38:13.802Z,2108.00
2023-11-12T12:39:13.818Z,2080.00
2023-11-12T12:40:13.797Z,2108.00
2023-11-12T12:41:13.781Z,2008.00
2023-11-12T12:42:14.191Z,1704.00
2023-11-12T12:43:13.708Z,1384.00